Terminal Aerodrome Forecast
Issued by NWS

Home | Current Version | Previous Version | Text Only | Print | Product List | Glossary On
Versions: 1 2 3 4 5 6 7 8 9 10 11 12 13 14 15 16
000
FTUS45 KABQ 232325
TAFLVS
TAF
KLVS 232325Z 2400/2424 12013KT P6SM SCT045
     FM240800 11008KT P6SM OVC015
     FM241500 18010G19KT P6SM BKN025
     FM241800 17014G22KT P6SM BKN050=

USA.gov is the U.S. government's official web portal to all federal, state and local government web resources and services.